createdAt,value
2023-05-09T00:00:57.410Z,971.9
2023-05-09T00:05:41.530Z,971.9
2023-05-09T00:10:25.775Z,972
2023-05-09T00:15:09.838Z,971.9
2023-05-09T00:19:54.063Z,971.9
2023-05-09T00:24:38.305Z,971.9
2023-05-09T00:29:22.387Z,971.9
2023-05-09T00:34:06.643Z,971.9
2023-05-09T00:38:50.718Z,971.9
2023-05-09T00:43:34.988Z,971.8
2023-05-09T00:48:19.062Z,971.8
2023-05-09T00:53:03.465Z,971.7
2023-05-09T00:57:47.593Z,971.7
2023-05-09T01:02:31.799Z,971.6
2023-05-09T01:07:15.912Z,971.5
2023-05-09T01:12:00.202Z,971.5
2023-05-09T01:16:44.310Z,971.5
2023-05-09T01:21:28.452Z,971.5
2023-05-09T01:26:12.074Z,971.5
2023-05-09T01:30:55.428Z,971.4
2023-05-09T01:35:38.627Z,971.5
2023-05-09T01:40:21.922Z,971.5
2023-05-09T01:45:04.730Z,971.5
2023-05-09T01:54:31.253Z,971.5
2023-05-09T01:59:14.575Z,971.5
2023-05-09T02:03:57.780Z,971.4
2023-05-09T02:08:41.099Z,971.3
2023-05-09T02:13:24.315Z,971.4
2023-05-09T02:22:50.931Z,971.3
2023-05-09T02:32:17.436Z,971.3
2023-05-09T02:37:00.377Z,971.3
2023-05-09T02:41:43.629Z,971.3
2023-05-09T02:46:26.506Z,971.2
2023-05-09T02:51:09.813Z,971.2
2023-05-09T02:55:53.126Z,971.2
2023-05-09T03:00:36.354Z,971.2
2023-05-09T03:05:19.592Z,971.2
2023-05-09T03:10:02.780Z,971.1
2023-05-09T03:14:46.087Z,971.1
2023-05-09T03:24:12.627Z,971.2
2023-05-09T03:28:55.928Z,971.2
2023-05-09T03:33:38.754Z,971.1
2023-05-09T03:43:05.277Z,971.1
2023-05-09T03:47:48.302Z,971.2
2023-05-09T03:52:31.602Z,971.1
2023-05-09T04:01:58.138Z,971.1
2023-05-09T04:06:41.350Z,971.1
2023-05-09T04:11:24.664Z,971.1
2023-05-09T04:20:51.190Z,971.1
2023-05-09T04:25:34.414Z,971.2
2023-05-09T04:30:17.720Z,971.1
2023-05-09T04:35:00.930Z,971.2
2023-05-09T04:39:44.250Z,971.2
2023-05-09T04:44:27.056Z,971.1
2023-05-09T04:49:10.371Z,971
2023-05-09T04:53:53.626Z,971
2023-05-09T04:58:36.900Z,971
2023-05-09T05:03:20.116Z,971
2023-05-09T05:08:03.426Z,971
2023-05-09T05:12:46.663Z,971
2023-05-09T05:17:29.948Z,971
2023-05-09T05:22:13.180Z,971
2023-05-09T05:36:23.014Z,971
2023-05-09T05:41:06.221Z,971
2023-05-09T05:45:49.570Z,971
2023-05-09T05:50:32.821Z,970.9
2023-05-09T05:59:59.385Z,971
2023-05-09T06:04:42.616Z,970.9
2023-05-09T06:09:25.899Z,970.9
2023-05-09T06:14:09.114Z,970.8
2023-05-09T06:18:52.445Z,970.8
2023-05-09T06:23:35.650Z,970.8
2023-05-09T06:33:02.284Z,970.6
2023-05-09T06:37:45.484Z,970.7
2023-05-09T06:42:27.798Z,970.6
2023-05-09T06:51:53.340Z,970.4
2023-05-09T06:56:36.038Z,970.3
2023-05-09T07:01:18.754Z,970.3
2023-05-09T07:10:44.180Z,970.3
2023-05-09T07:20:09.717Z,970.3
2023-05-09T07:34:17.857Z,970.1
2023-05-09T07:53:08.798Z,969.6
2023-05-09T07:57:51.517Z,969.4
2023-05-09T08:02:34.233Z,969.5
2023-05-09T08:07:16.950Z,969.4
2023-05-09T08:11:59.753Z,969.3
2023-05-09T08:16:42.476Z,969.3
2023-05-09T08:21:25.202Z,969.2
2023-05-09T08:26:07.899Z,969.1
2023-05-09T08:30:50.662Z,969
2023-05-09T08:35:33.340Z,968.9
2023-05-09T08:40:16.642Z,968.8
2023-05-09T08:45:00.059Z,968.8
2023-05-09T08:49:43.171Z,968.7
2023-05-09T09:03:53.016Z,968.5
2023-05-09T09:08:36.234Z,968.5
2023-05-09T09:13:19.593Z,968.3
2023-05-09T09:18:02.790Z,968.2
2023-05-09T09:27:28.884Z,968.1
2023-05-09T09:32:12.109Z,968
2023-05-09T09:41:38.702Z,967.9
2023-05-09T09:46:21.950Z,967.8
2023-05-09T09:51:05.159Z,967.8
2023-05-09T10:00:31.689Z,967.7
2023-05-09T10:09:58.224Z,967.4
2023-05-09T10:19:24.820Z,967.1
2023-05-09T10:24:08.066Z,966.9
2023-05-09T10:28:51.472Z,966.9
2023-05-09T10:33:34.722Z,966.8
2023-05-09T10:38:18.035Z,966.6
2023-05-09T10:43:01.251Z,966.5
2023-05-09T10:57:11.023Z,966.2
2023-05-09T11:01:54.300Z,966.1
2023-05-09T11:06:37.655Z,966
2023-05-09T11:16:04.220Z,965.7
2023-05-09T11:20:47.307Z,965.6
2023-05-09T11:25:30.598Z,965.6
2023-05-09T11:30:13.871Z,965.4
2023-05-09T11:34:57.173Z,965.4
2023-05-09T11:39:40.512Z,965.2
2023-05-09T11:44:23.759Z,965.1
2023-05-09T11:49:07.014Z,965.1
2023-05-09T11:53:50.220Z,965
2023-05-09T11:58:33.472Z,964.9
2023-05-09T12:03:16.794Z,965
2023-05-09T12:08:00.054Z,964.9
2023-05-09T12:12:43.357Z,964.7
2023-05-09T12:22:11.729Z,964.6
2023-05-09T12:26:55.856Z,964.6
2023-05-09T12:31:40.058Z,964.6
2023-05-09T12:41:08.399Z,964.5
2023-05-09T12:45:52.431Z,964.4
2023-05-09T12:55:20.926Z,964.3
2023-05-09T13:00:05.334Z,964.1
2023-05-09T13:04:49.300Z,964
2023-05-09T13:09:33.516Z,964.1
2023-05-09T13:14:17.811Z,964
2023-05-09T13:19:01.926Z,964
2023-05-09T13:23:46.080Z,963.8
2023-05-09T13:28:30.199Z,963.7
2023-05-09T13:33:14.403Z,963.7
2023-05-09T13:37:58.517Z,963.5
2023-05-09T13:42:42.738Z,963.6
2023-05-09T13:47:26.951Z,963.4
2023-05-09T13:52:11.062Z,963.4
2023-05-09T13:56:55.344Z,963.4
2023-05-09T14:01:39.397Z,963.3
2023-05-09T14:06:24.134Z,963.2
2023-05-09T14:11:08.436Z,963.2
2023-05-09T14:15:52.652Z,963.2
2023-05-09T14:20:36.970Z,963
2023-05-09T14:25:21.092Z,963
2023-05-09T14:30:05.293Z,962.9
2023-05-09T14:34:49.419Z,962.9
2023-05-09T14:39:33.634Z,962.9
2023-05-09T14:44:17.857Z,962.7
2023-05-09T14:49:01.978Z,962.6
2023-05-09T14:53:46.679Z,962.5
2023-05-09T14:58:30.802Z,962.4
2023-05-09T15:03:15.017Z,962.3
2023-05-09T15:07:59.136Z,962.3
2023-05-09T15:12:43.451Z,962.2
2023-05-09T15:17:27.682Z,962.1
2023-05-09T15:22:11.784Z,962
2023-05-09T15:26:56.051Z,962.1
2023-05-09T15:31:40.252Z,962
2023-05-09T15:36:24.343Z,961.9
2023-05-09T15:41:08.564Z,961.9
2023-05-09T15:45:52.673Z,961.9
2023-05-09T15:50:37.202Z,961.8
2023-05-09T15:55:21.704Z,961.8
2023-05-09T16:00:05.922Z,961.8
2023-05-09T16:04:50.081Z,961.8
2023-05-09T16:09:34.756Z,961.7
2023-05-09T16:19:03.099Z,961.6
2023-05-09T16:23:47.216Z,961.5
2023-05-09T16:28:31.472Z,961.4
2023-05-09T16:33:15.744Z,961.4
2023-05-09T16:37:59.893Z,961.3
2023-05-09T16:47:28.290Z,961.2
2023-05-09T16:52:12.413Z,961.2
2023-05-09T16:56:56.667Z,961.2
2023-05-09T17:01:40.752Z,961.1
2023-05-09T17:11:09.078Z,961.1
2023-05-09T17:15:53.289Z,961.1
2023-05-09T17:25:21.640Z,961.1
2023-05-09T17:30:05.764Z,961
2023-05-09T17:34:49.959Z,961
2023-05-09T17:44:18.305Z,960.8
2023-05-09T17:49:02.534Z,960.8
2023-05-09T17:58:30.849Z,960.7
2023-05-09T18:12:43.334Z,960.7
2023-05-09T18:17:27.586Z,960.8
2023-05-09T18:22:12.021Z,960.7
2023-05-09T18:31:40.351Z,960.7
2023-05-09T18:36:24.596Z,960.7
2023-05-09T18:41:08.819Z,960.7
2023-05-09T18:50:37.016Z,960.6
2023-05-09T18:55:21.231Z,960.6
2023-05-09T19:00:05.383Z,960.7
2023-05-09T19:04:49.732Z,960.6
2023-05-09T19:09:33.845Z,960.6
2023-05-09T19:14:18.073Z,960.5
2023-05-09T19:19:02.105Z,960.4
2023-05-09T19:23:46.237Z,960.4
2023-05-09T19:28:30.497Z,960.5
2023-05-09T19:33:14.649Z,960.5
2023-05-09T19:37:58.865Z,960.6
2023-05-09T19:42:42.906Z,960.6
2023-05-09T19:47:27.233Z,960.6
2023-05-09T19:52:11.341Z,960.8
2023-05-09T19:56:55.440Z,960.7
2023-05-09T20:01:39.583Z,960.8
2023-05-09T20:06:24.082Z,960.8
2023-05-09T20:11:08.329Z,960.8
2023-05-09T20:15:52.542Z,960.9
2023-05-09T20:20:36.650Z,960.9
2023-05-09T20:30:04.944Z,961
2023-05-09T20:34:49.073Z,960.9
2023-05-09T20:39:33.285Z,961
2023-05-09T20:44:17.506Z,961
2023-05-09T20:49:01.610Z,961
2023-05-09T20:53:45.876Z,961
2023-05-09T20:58:29.981Z,961
2023-05-09T21:03:14.186Z,961
2023-05-09T21:07:58.282Z,960.9
2023-05-09T21:12:42.519Z,960.9
2023-05-09T21:17:26.603Z,960.9
2023-05-09T21:26:55.114Z,960.9
2023-05-09T21:31:39.351Z,960.9
2023-05-09T21:36:23.463Z,960.9
2023-05-09T21:41:07.683Z,961
2023-05-09T21:45:51.811Z,961
2023-05-09T21:50:36.008Z,961
2023-05-09T22:00:04.335Z,961.1
2023-05-09T22:04:48.857Z,961.4
2023-05-09T22:14:17.210Z,961.7
2023-05-09T22:19:01.409Z,961.6
2023-05-09T22:23:45.536Z,961.6
2023-05-09T22:28:29.722Z,961.5
2023-05-09T22:33:14.246Z,961.5
2023-05-09T22:37:58.363Z,961.4
2023-05-09T22:42:42.609Z,961.5
2023-05-09T22:47:26.741Z,961.3
2023-05-09T22:52:10.927Z,961.3
2023-05-09T22:56:55.025Z,961.2
2023-05-09T23:01:39.266Z,961.1
2023-05-09T23:06:23.754Z,961
2023-05-09T23:11:08.272Z,961
2023-05-09T23:15:52.588Z,960.9
2023-05-09T23:20:36.809Z,960.9
2023-05-09T23:25:20.928Z,960.9
2023-05-09T23:30:05.134Z,960.8
2023-05-09T23:34:49.257Z,960.8
2023-05-09T23:39:33.465Z,960.9
2023-05-09T23:44:17.587Z,960.9
2023-05-09T23:49:01.797Z,960.8
2023-05-09T23:53:45.917Z,960.7
2023-05-09T23:58:30.127Z,960.6
